sensor_id;sensor_type;location;lat;lon;timestamp;P1;durP1;ratioP1;P2;durP2;ratioP2
19049;SDS011;9657;45.940;12.840;2023-05-18T00:01:09;7.20;;;2.50;;
19049;SDS011;9657;45.940;12.840;2023-05-18T00:03:38;3.93;;;2.13;;
19049;SDS011;9657;45.940;12.840;2023-05-18T00:06:05;4.40;;;2.43;;
19049;SDS011;9657;45.940;12.840;2023-05-18T00:08:34;7.07;;;2.43;;
19049;SDS011;9657;45.940;12.840;2023-05-18T00:11:03;4.77;;;2.00;;
19049;SDS011;9657;45.940;12.840;2023-05-18T00:13:31;5.38;;;2.08;;
19049;SDS011;9657;45.940;12.840;2023-05-18T00:15:58;5.05;;;2.40;;
19049;SDS011;9657;45.940;12.840;2023-05-18T00:18:25;4.23;;;2.20;;
19049;SDS011;9657;45.940;12.840;2023-05-18T00:20:53;6.13;;;2.20;;
19049;SDS011;9657;45.940;12.840;2023-05-18T00:23:23;3.93;;;2.00;;
19049;SDS011;9657;45.940;12.840;2023-05-18T00:25:53;4.28;;;2.50;;
19049;SDS011;9657;45.940;12.840;2023-05-18T00:28:23;4.82;;;2.13;;
19049;SDS011;9657;45.940;12.840;2023-05-18T00:30:50;4.28;;;2.08;;
19049;SDS011;9657;45.940;12.840;2023-05-18T00:33:18;4.10;;;2.40;;
19049;SDS011;9657;45.940;12.840;2023-05-18T00:35:45;6.43;;;2.40;;
19049;SDS011;9657;45.940;12.840;2023-05-18T00:38:12;5.20;;;2.33;;
19049;SDS011;9657;45.940;12.840;2023-05-18T00:40:40;4.37;;;2.30;;
19049;SDS011;9657;45.940;12.840;2023-05-18T00:43:07;4.53;;;2.13;;
19049;SDS011;9657;45.940;12.840;2023-05-18T00:45:36;4.43;;;2.20;;
19049;SDS011;9657;45.940;12.840;2023-05-18T00:48:03;2.57;;;1.90;;
19049;SDS011;9657;45.940;12.840;2023-05-18T00:50:31;2.77;;;1.87;;
19049;SDS011;9657;45.940;12.840;2023-05-18T00:52:58;4.60;;;1.93;;
19049;SDS011;9657;45.940;12.840;2023-05-18T00:55:25;2.73;;;2.00;;
19049;SDS011;9657;45.940;12.840;2023-05-18T00:57:53;4.70;;;2.17;;
19049;SDS011;9657;45.940;12.840;2023-05-18T01:02:58;2.67;;;1.80;;
19049;SDS011;9657;45.940;12.840;2023-05-18T01:05:26;3.37;;;2.20;;
19049;SDS011;9657;45.940;12.840;2023-05-18T01:07:53;3.10;;;2.00;;
19049;SDS011;9657;45.940;12.840;2023-05-18T01:10:22;4.43;;;2.10;;
19049;SDS011;9657;45.940;12.840;2023-05-18T01:12:50;4.13;;;1.95;;
19049;SDS011;9657;45.940;12.840;2023-05-18T01:15:21;2.37;;;1.80;;
19049;SDS011;9657;45.940;12.840;2023-05-18T01:17:56;2.70;;;1.70;;
19049;SDS011;9657;45.940;12.840;2023-05-18T01:20:40;3.13;;;2.00;;
19049;SDS011;9657;45.940;12.840;2023-05-18T01:23:17;4.77;;;1.97;;
19049;SDS011;9657;45.940;12.840;2023-05-18T01:26:10;2.53;;;1.60;;
19049;SDS011;9657;45.940;12.840;2023-05-18T01:28:42;2.53;;;1.80;;
19049;SDS011;9657;45.940;12.840;2023-05-18T01:31:11;4.30;;;2.27;;
19049;SDS011;9657;45.940;12.840;2023-05-18T01:33:40;2.53;;;1.60;;
19049;SDS011;9657;45.940;12.840;2023-05-18T01:36:07;5.83;;;1.90;;
19049;SDS011;9657;45.940;12.840;2023-05-18T01:38:35;2.40;;;1.80;;
19049;SDS011;9657;45.940;12.840;2023-05-18T01:41:06;3.77;;;1.90;;
19049;SDS011;9657;45.940;12.840;2023-05-18T01:43:42;2.30;;;1.83;;
19049;SDS011;9657;45.940;12.840;2023-05-18T01:46:16;2.93;;;2.10;;
19049;SDS011;9657;45.940;12.840;2023-05-18T01:48:55;4.03;;;1.97;;
19049;SDS011;9657;45.940;12.840;2023-05-18T01:51:28;3.07;;;1.77;;
19049;SDS011;9657;45.940;12.840;2023-05-18T01:54:01;3.73;;;1.90;;
19049;SDS011;9657;45.940;12.840;2023-05-18T01:56:32;2.30;;;1.73;;
19049;SDS011;9657;45.940;12.840;2023-05-18T01:59:00;3.07;;;1.87;;
19049;SDS011;9657;45.940;12.840;2023-05-18T02:01:28;2.60;;;1.73;;
19049;SDS011;9657;45.940;12.840;2023-05-18T02:03:56;3.53;;;1.87;;
19049;SDS011;9657;45.940;12.840;2023-05-18T02:06:23;3.17;;;2.13;;
19049;SDS011;9657;45.940;12.840;2023-05-18T02:08:50;3.30;;;1.57;;
19049;SDS011;9657;45.940;12.840;2023-05-18T02:11:17;2.60;;;2.07;;
19049;SDS011;9657;45.940;12.840;2023-05-18T02:13:46;2.95;;;1.80;;
19049;SDS011;9657;45.940;12.840;2023-05-18T02:16:14;2.87;;;1.90;;
19049;SDS011;9657;45.940;12.840;2023-05-18T02:18:41;3.50;;;1.67;;
19049;SDS011;9657;45.940;12.840;2023-05-18T02:21:08;2.27;;;1.67;;
19049;SDS011;9657;45.940;12.840;2023-05-18T02:23:37;2.67;;;1.97;;
19049;SDS011;9657;45.940;12.840;2023-05-18T02:26:05;5.10;;;2.00;;
19049;SDS011;9657;45.940;12.840;2023-05-18T02:28:32;2.77;;;1.60;;
19049;SDS011;9657;45.940;12.840;2023-05-18T02:31:06;3.60;;;1.60;;
19049;SDS011;9657;45.940;12.840;2023-05-18T02:33:35;3.17;;;1.80;;
19049;SDS011;9657;45.940;12.840;2023-05-18T02:36:06;2.30;;;1.77;;
19049;SDS011;9657;45.940;12.840;2023-05-18T02:38:36;2.57;;;1.63;;
19049;SDS011;9657;45.940;12.840;2023-05-18T02:41:04;2.63;;;1.60;;
19049;SDS011;9657;45.940;12.840;2023-05-18T02:43:32;1.97;;;1.57;;
19049;SDS011;9657;45.940;12.840;2023-05-18T02:45:59;3.10;;;1.80;;
19049;SDS011;9657;45.940;12.840;2023-05-18T02:48:28;2.83;;;1.60;;
19049;SDS011;9657;45.940;12.840;2023-05-18T02:50:55;3.43;;;1.80;;
19049;SDS011;9657;45.940;12.840;2023-05-18T02:53:22;3.73;;;2.10;;
19049;SDS011;9657;45.940;12.840;2023-05-18T02:55:52;2.77;;;1.97;;
19049;SDS011;9657;45.940;12.840;2023-05-18T02:58:22;2.97;;;1.77;;
19049;SDS011;9657;45.940;12.840;2023-05-18T03:00:49;1.93;;;1.70;;
19049;SDS011;9657;45.940;12.840;2023-05-18T03:03:19;2.20;;;1.70;;
19049;SDS011;9657;45.940;12.840;2023-05-18T03:05:49;4.20;;;1.57;;
19049;SDS011;9657;45.940;12.840;2023-05-18T03:08:17;2.57;;;1.73;;
19049;SDS011;9657;45.940;12.840;2023-05-18T03:10:45;2.73;;;1.63;;
19049;SDS011;9657;45.940;12.840;2023-05-18T03:13:12;1.87;;;1.63;;
19049;SDS011;9657;45.940;12.840;2023-05-18T03:15:39;2.53;;;1.53;;
19049;SDS011;9657;45.940;12.840;2023-05-18T03:18:06;5.70;;;2.13;;
19049;SDS011;9657;45.940;12.840;2023-05-18T03:20:33;2.00;;;1.53;;
19049;SDS011;9657;45.940;12.840;2023-05-18T03:23:03;3.90;;;1.70;;
19049;SDS011;9657;45.940;12.840;2023-05-18T03:25:30;3.83;;;1.97;;
19049;SDS011;9657;45.940;12.840;2023-05-18T03:27:57;3.30;;;1.60;;
19049;SDS011;9657;45.940;12.840;2023-05-18T03:30:24;3.07;;;1.50;;
19049;SDS011;9657;45.940;12.840;2023-05-18T03:32:51;3.03;;;1.60;;
19049;SDS011;9657;45.940;12.840;2023-05-18T03:35:18;6.30;;;1.70;;
19049;SDS011;9657;45.940;12.840;2023-05-18T03:37:45;1.80;;;1.50;;
19049;SDS011;9657;45.940;12.840;2023-05-18T03:40:14;2.47;;;1.23;;
19049;SDS011;9657;45.940;12.840;2023-05-18T03:42:42;3.93;;;1.60;;
19049;SDS011;9657;45.940;12.840;2023-05-18T03:45:09;4.80;;;1.93;;
19049;SDS011;9657;45.940;12.840;2023-05-18T03:47:37;2.17;;;1.33;;
19049;SDS011;9657;45.940;12.840;2023-05-18T03:50:05;4.40;;;1.60;;
19049;SDS011;9657;45.940;12.840;2023-05-18T03:52:33;2.63;;;1.50;;
19049;SDS011;9657;45.940;12.840;2023-05-18T03:55:01;2.93;;;1.50;;
19049;SDS011;9657;45.940;12.840;2023-05-18T03:57:30;2.27;;;1.60;;
19049;SDS011;9657;45.940;12.840;2023-05-18T03:59:58;3.20;;;1.40;;
19049;SDS011;9657;45.940;12.840;2023-05-18T04:02:25;3.10;;;1.47;;
19049;SDS011;9657;45.940;12.840;2023-05-18T04:04:52;3.37;;;1.60;;
19049;SDS011;9657;45.940;12.840;2023-05-18T04:07:22;3.63;;;1.63;;
19049;SDS011;9657;45.940;12.840;2023-05-18T04:09:49;5.17;;;1.43;;
19049;SDS011;9657;45.940;12.840;2023-05-18T04:12:17;3.90;;;1.73;;
19049;SDS011;9657;45.940;12.840;2023-05-18T04:14:45;2.20;;;1.30;;
19049;SDS011;9657;45.940;12.840;2023-05-18T04:17:14;4.23;;;1.50;;
19049;SDS011;9657;45.940;12.840;2023-05-18T04:19:42;4.40;;;1.67;;
19049;SDS011;9657;45.940;12.840;2023-05-18T04:22:09;2.93;;;2.00;;
19049;SDS011;9657;45.940;12.840;2023-05-18T04:24:36;8.00;;;2.03;;
19049;SDS011;9657;45.940;12.840;2023-05-18T04:27:05;2.93;;;1.80;;
19049;SDS011;9657;45.940;12.840;2023-05-18T04:29:33;3.20;;;1.70;;
19049;SDS011;9657;45.940;12.840;2023-05-18T04:32:04;3.87;;;1.50;;
19049;SDS011;9657;45.940;12.840;2023-05-18T04:34:32;4.00;;;1.80;;
19049;SDS011;9657;45.940;12.840;2023-05-18T04:36:59;3.77;;;1.67;;
19049;SDS011;9657;45.940;12.840;2023-05-18T04:39:29;5.57;;;1.70;;
19049;SDS011;9657;45.940;12.840;2023-05-18T04:41:57;2.47;;;1.40;;
19049;SDS011;9657;45.940;12.840;2023-05-18T04:44:24;2.70;;;1.63;;
19049;SDS011;9657;45.940;12.840;2023-05-18T04:46:52;3.63;;;1.60;;
19049;SDS011;9657;45.940;12.840;2023-05-18T04:49:21;2.73;;;1.70;;
19049;SDS011;9657;45.940;12.840;2023-05-18T04:51:50;4.67;;;1.90;;
19049;SDS011;9657;45.940;12.840;2023-05-18T04:54:21;3.30;;;1.50;;
19049;SDS011;9657;45.940;12.840;2023-05-18T04:56:48;1.47;;;1.17;;
19049;SDS011;9657;45.940;12.840;2023-05-18T04:59:15;3.80;;;1.57;;
19049;SDS011;9657;45.940;12.840;2023-05-18T05:01:43;3.83;;;1.37;;
19049;SDS011;9657;45.940;12.840;2023-05-18T05:04:11;4.63;;;2.00;;
19049;SDS011;9657;45.940;12.840;2023-05-18T05:06:40;4.23;;;1.53;;
19049;SDS011;9657;45.940;12.840;2023-05-18T05:09:06;4.80;;;1.67;;
19049;SDS011;9657;45.940;12.840;2023-05-18T05:11:34;3.80;;;1.50;;
19049;SDS011;9657;45.940;12.840;2023-05-18T05:14:01;3.40;;;1.77;;
19049;SDS011;9657;45.940;12.840;2023-05-18T05:16:28;3.70;;;1.70;;
19049;SDS011;9657;45.940;12.840;2023-05-18T05:18:55;3.80;;;1.50;;
19049;SDS011;9657;45.940;12.840;2023-05-18T05:21:22;4.17;;;1.60;;
19049;SDS011;9657;45.940;12.840;2023-05-18T05:23:51;3.07;;;1.50;;
19049;SDS011;9657;45.940;12.840;2023-05-18T05:26:18;2.67;;;1.27;;
19049;SDS011;9657;45.940;12.840;2023-05-18T05:28:45;2.90;;;1.27;;
19049;SDS011;9657;45.940;12.840;2023-05-18T05:31:12;3.10;;;1.47;;
19049;SDS011;9657;45.940;12.840;2023-05-18T05:33:40;2.97;;;1.47;;
19049;SDS011;9657;45.940;12.840;2023-05-18T05:36:07;4.60;;;1.73;;
19049;SDS011;9657;45.940;12.840;2023-05-18T05:38:34;3.15;;;1.30;;
19049;SDS011;9657;45.940;12.840;2023-05-18T05:41:04;2.67;;;1.73;;
19049;SDS011;9657;45.940;12.840;2023-05-18T05:43:31;2.37;;;1.40;;
19049;SDS011;9657;45.940;12.840;2023-05-18T05:45:58;4.93;;;1.57;;
19049;SDS011;9657;45.940;12.840;2023-05-18T05:48:25;1.43;;;1.20;;
19049;SDS011;9657;45.940;12.840;2023-05-18T05:50:52;2.97;;;1.27;;
19049;SDS011;9657;45.940;12.840;2023-05-18T05:53:19;2.63;;;1.33;;
19049;SDS011;9657;45.940;12.840;2023-05-18T05:55:47;2.07;;;1.43;;
19049;SDS011;9657;45.940;12.840;2023-05-18T05:58:16;1.80;;;1.60;;
19049;SDS011;9657;45.940;12.840;2023-05-18T06:00:43;2.90;;;1.40;;
19049;SDS011;9657;45.940;12.840;2023-05-18T06:03:11;5.67;;;1.90;;
19049;SDS011;9657;45.940;12.840;2023-05-18T06:05:38;3.57;;;1.50;;
19049;SDS011;9657;45.940;12.840;2023-05-18T06:08:05;4.50;;;1.77;;
19049;SDS011;9657;45.940;12.840;2023-05-18T06:10:32;5.43;;;1.70;;
19049;SDS011;9657;45.940;12.840;2023-05-18T06:12:59;2.23;;;1.20;;
19049;SDS011;9657;45.940;12.840;2023-05-18T06:15:28;2.63;;;1.60;;
19049;SDS011;9657;45.940;12.840;2023-05-18T06:17:55;1.83;;;1.03;;
19049;SDS011;9657;45.940;12.840;2023-05-18T06:20:22;2.83;;;0.90;;
19049;SDS011;9657;45.940;12.840;2023-05-18T06:22:50;2.67;;;1.40;;
19049;SDS011;9657;45.940;12.840;2023-05-18T06:25:17;1.63;;;1.20;;
19049;SDS011;9657;45.940;12.840;2023-05-18T06:27:44;4.07;;;1.83;;
19049;SDS011;9657;45.940;12.840;2023-05-18T06:30:12;3.77;;;1.40;;
19049;SDS011;9657;45.940;12.840;2023-05-18T06:32:41;2.20;;;1.30;;
19049;SDS011;9657;45.940;12.840;2023-05-18T06:35:08;2.77;;;1.10;;
19049;SDS011;9657;45.940;12.840;2023-05-18T06:37:37;2.73;;;1.30;;
19049;SDS011;9657;45.940;12.840;2023-05-18T06:40:05;2.50;;;1.50;;
19049;SDS011;9657;45.940;12.840;2023-05-18T06:42:32;3.23;;;1.40;;
19049;SDS011;9657;45.940;12.840;2023-05-18T06:45:00;2.77;;;1.50;;
19049;SDS011;9657;45.940;12.840;2023-05-18T06:47:27;4.50;;;1.60;;
19049;SDS011;9657;45.940;12.840;2023-05-18T06:49:56;2.07;;;1.40;;
19049;SDS011;9657;45.940;12.840;2023-05-18T06:52:23;2.47;;;1.40;;
19049;SDS011;9657;45.940;12.840;2023-05-18T06:54:50;2.97;;;1.17;;
19049;SDS011;9657;45.940;12.840;2023-05-18T06:57:17;3.60;;;1.17;;
19049;SDS011;9657;45.940;12.840;2023-05-18T06:59:44;3.27;;;1.63;;
19049;SDS011;9657;45.940;12.840;2023-05-18T07:02:17;4.37;;;1.30;;
19049;SDS011;9657;45.940;12.840;2023-05-18T07:04:44;2.47;;;1.10;;
19049;SDS011;9657;45.940;12.840;2023-05-18T07:07:13;3.90;;;1.23;;
19049;SDS011;9657;45.940;12.840;2023-05-18T07:09:40;2.47;;;1.20;;
19049;SDS011;9657;45.940;12.840;2023-05-18T07:12:09;3.30;;;1.17;;
19049;SDS011;9657;45.940;12.840;2023-05-18T07:14:37;3.13;;;1.53;;
19049;SDS011;9657;45.940;12.840;2023-05-18T07:17:04;3.53;;;1.50;;
19049;SDS011;9657;45.940;12.840;2023-05-18T07:19:32;2.60;;;1.33;;
19049;SDS011;9657;45.940;12.840;2023-05-18T07:22:00;2.07;;;1.27;;
19049;SDS011;9657;45.940;12.840;2023-05-18T07:24:29;3.73;;;1.23;;
19049;SDS011;9657;45.940;12.840;2023-05-18T07:26:56;2.73;;;1.13;;
19049;SDS011;9657;45.940;12.840;2023-05-18T07:29:24;2.27;;;1.70;;
19049;SDS011;9657;45.940;12.840;2023-05-18T07:31:51;2.03;;;1.33;;
19049;SDS011;9657;45.940;12.840;2023-05-18T07:34:18;1.57;;;1.23;;
19049;SDS011;9657;45.940;12.840;2023-05-18T07:36:45;6.03;;;1.97;;
19049;SDS011;9657;45.940;12.840;2023-05-18T07:39:12;5.13;;;1.87;;
19049;SDS011;9657;45.940;12.840;2023-05-18T07:41:44;1.90;;;1.60;;
19049;SDS011;9657;45.940;12.840;2023-05-18T07:44:11;3.00;;;1.43;;
19049;SDS011;9657;45.940;12.840;2023-05-18T07:46:38;2.80;;;1.48;;
19049;SDS011;9657;45.940;12.840;2023-05-18T07:49:05;3.23;;;1.80;;
19049;SDS011;9657;45.940;12.840;2023-05-18T07:51:32;4.17;;;1.60;;
19049;SDS011;9657;45.940;12.840;2023-05-18T07:53:59;4.70;;;1.83;;
19049;SDS011;9657;45.940;12.840;2023-05-18T07:56:27;3.75;;;2.28;;
19049;SDS011;9657;45.940;12.840;2023-05-18T07:58:55;4.70;;;1.88;;
19049;SDS011;9657;45.940;12.840;2023-05-18T08:01:23;6.15;;;1.92;;
19049;SDS011;9657;45.940;12.840;2023-05-18T08:03:52;4.82;;;2.25;;
19049;SDS011;9657;45.940;12.840;2023-05-18T08:06:19;3.90;;;2.40;;
19049;SDS011;9657;45.940;12.840;2023-05-18T08:08:46;7.68;;;2.30;;
19049;SDS011;9657;45.940;12.840;2023-05-18T08:11:13;7.28;;;2.47;;
19049;SDS011;9657;45.940;12.840;2023-05-18T08:13:40;4.72;;;2.08;;
19049;SDS011;9657;45.940;12.840;2023-05-18T08:16:09;4.32;;;2.00;;
19049;SDS011;9657;45.940;12.840;2023-05-18T08:18:36;5.40;;;2.50;;
19049;SDS011;9657;45.940;12.840;2023-05-18T08:21:03;6.57;;;2.00;;
19049;SDS011;9657;45.940;12.840;2023-05-18T08:23:32;5.87;;;2.17;;
19049;SDS011;9657;45.940;12.840;2023-05-18T08:26:00;4.80;;;1.95;;
19049;SDS011;9657;45.940;12.840;2023-05-18T08:28:28;3.53;;;2.10;;
19049;SDS011;9657;45.940;12.840;2023-05-18T08:30:55;2.67;;;1.85;;
19049;SDS011;9657;45.940;12.840;2023-05-18T08:33:24;3.65;;;1.90;;
19049;SDS011;9657;45.940;12.840;2023-05-18T08:35:52;5.97;;;2.17;;
19049;SDS011;9657;45.940;12.840;2023-05-18T08:38:20;5.53;;;2.47;;
19049;SDS011;9657;45.940;12.840;2023-05-18T08:40:49;6.37;;;1.97;;
19049;SDS011;9657;45.940;12.840;2023-05-18T08:43:19;2.27;;;1.80;;
19049;SDS011;9657;45.940;12.840;2023-05-18T08:45:54;5.57;;;2.22;;
19049;SDS011;9657;45.940;12.840;2023-05-18T08:48:29;3.70;;;1.60;;
19049;SDS011;9657;45.940;12.840;2023-05-18T08:50:57;4.78;;;2.20;;
19049;SDS011;9657;45.940;12.840;2023-05-18T08:53:27;4.50;;;1.83;;
19049;SDS011;9657;45.940;12.840;2023-05-18T08:55:57;5.50;;;1.75;;
19049;SDS011;9657;45.940;12.840;2023-05-18T08:58:27;6.05;;;2.30;;
19049;SDS011;9657;45.940;12.840;2023-05-18T09:00:59;4.68;;;1.95;;
19049;SDS011;9657;45.940;12.840;2023-05-18T09:03:28;4.95;;;1.75;;
19049;SDS011;9657;45.940;12.840;2023-05-18T09:05:56;3.97;;;1.92;;
19049;SDS011;9657;45.940;12.840;2023-05-18T09:08:25;5.30;;;1.80;;
19049;SDS011;9657;45.940;12.840;2023-05-18T09:10:55;3.78;;;2.03;;
19049;SDS011;9657;45.940;12.840;2023-05-18T09:13:23;6.03;;;1.98;;
19049;SDS011;9657;45.940;12.840;2023-05-18T09:15:51;2.80;;;1.52;;
19049;SDS011;9657;45.940;12.840;2023-05-18T09:18:18;2.92;;;1.60;;
19049;SDS011;9657;45.940;12.840;2023-05-18T09:20:46;4.82;;;1.88;;
19049;SDS011;9657;45.940;12.840;2023-05-18T09:23:14;6.07;;;1.90;;
19049;SDS011;9657;45.940;12.840;2023-05-18T09:25:42;3.33;;;1.38;;
19049;SDS011;9657;45.940;12.840;2023-05-18T09:28:21;2.58;;;1.48;;
19049;SDS011;9657;45.940;12.840;2023-05-18T09:30:51;2.58;;;1.70;;
19049;SDS011;9657;45.940;12.840;2023-05-18T09:33:19;2.60;;;1.50;;
19049;SDS011;9657;45.940;12.840;2023-05-18T09:35:49;4.25;;;1.85;;
19049;SDS011;9657;45.940;12.840;2023-05-18T09:38:18;2.58;;;1.42;;
19049;SDS011;9657;45.940;12.840;2023-05-18T09:40:48;3.25;;;1.90;;
19049;SDS011;9657;45.940;12.840;2023-05-18T09:43:15;2.38;;;1.48;;
19049;SDS011;9657;45.940;12.840;2023-05-18T09:45:44;3.38;;;1.83;;
19049;SDS011;9657;45.940;12.840;2023-05-18T09:48:12;4.18;;;1.77;;
19049;SDS011;9657;45.940;12.840;2023-05-18T09:50:41;3.30;;;1.60;;
19049;SDS011;9657;45.940;12.840;2023-05-18T09:53:12;3.20;;;1.40;;
19049;SDS011;9657;45.940;12.840;2023-05-18T09:55:43;2.05;;;1.42;;
19049;SDS011;9657;45.940;12.840;2023-05-18T09:58:11;2.50;;;1.48;;
19049;SDS011;9657;45.940;12.840;2023-05-18T10:00:40;3.28;;;1.65;;
19049;SDS011;9657;45.940;12.840;2023-05-18T10:03:18;1.85;;;1.10;;
19049;SDS011;9657;45.940;12.840;2023-05-18T10:05:46;2.22;;;1.30;;
19049;SDS011;9657;45.940;12.840;2023-05-18T10:08:14;2.00;;;1.17;;
19049;SDS011;9657;45.940;12.840;2023-05-18T10:10:43;3.67;;;1.65;;
19049;SDS011;9657;45.940;12.840;2023-05-18T10:13:12;5.53;;;1.35;;
19049;SDS011;9657;45.940;12.840;2023-05-18T10:15:45;2.13;;;1.33;;
19049;SDS011;9657;45.940;12.840;2023-05-18T10:18:15;2.08;;;1.30;;
19049;SDS011;9657;45.940;12.840;2023-05-18T10:20:47;2.70;;;1.42;;
19049;SDS011;9657;45.940;12.840;2023-05-18T10:23:16;2.75;;;1.30;;
19049;SDS011;9657;45.940;12.840;2023-05-18T10:25:43;2.13;;;1.40;;
19049;SDS011;9657;45.940;12.840;2023-05-18T10:28:13;5.22;;;1.42;;
19049;SDS011;9657;45.940;12.840;2023-05-18T10:30:48;1.52;;;1.05;;
19049;SDS011;9657;45.940;12.840;2023-05-18T10:33:18;3.25;;;1.25;;
19049;SDS011;9657;45.940;12.840;2023-05-18T10:35:47;1.65;;;1.23;;
19049;SDS011;9657;45.940;12.840;2023-05-18T10:38:19;2.97;;;1.10;;
19049;SDS011;9657;45.940;12.840;2023-05-18T10:40:48;2.05;;;1.10;;
19049;SDS011;9657;45.940;12.840;2023-05-18T10:43:17;1.67;;;1.40;;
19049;SDS011;9657;45.940;12.840;2023-05-18T10:45:46;4.30;;;1.20;;
19049;SDS011;9657;45.940;12.840;2023-05-18T10:48:15;2.85;;;1.13;;
19049;SDS011;9657;45.940;12.840;2023-05-18T10:50:44;2.03;;;1.02;;
19049;SDS011;9657;45.940;12.840;2023-05-18T10:53:13;3.28;;;1.52;;
19049;SDS011;9657;45.940;12.840;2023-05-18T10:55:44;3.22;;;1.40;;
19049;SDS011;9657;45.940;12.840;2023-05-18T10:58:13;2.17;;;1.20;;
19049;SDS011;9657;45.940;12.840;2023-05-18T11:00:43;1.95;;;1.10;;
19049;SDS011;9657;45.940;12.840;2023-05-18T11:03:15;1.83;;;1.20;;
19049;SDS011;9657;45.940;12.840;2023-05-18T11:05:47;3.05;;;1.33;;
19049;SDS011;9657;45.940;12.840;2023-05-18T11:08:23;3.00;;;1.10;;
19049;SDS011;9657;45.940;12.840;2023-05-18T11:10:59;2.15;;;1.20;;
19049;SDS011;9657;45.940;12.840;2023-05-18T11:13:28;2.40;;;1.23;;
19049;SDS011;9657;45.940;12.840;2023-05-18T11:16:05;2.47;;;0.98;;
19049;SDS011;9657;45.940;12.840;2023-05-18T11:18:37;1.42;;;0.98;;
19049;SDS011;9657;45.940;12.840;2023-05-18T11:21:19;1.25;;;1.15;;
19049;SDS011;9657;45.940;12.840;2023-05-18T11:26:48;2.75;;;1.20;;
19049;SDS011;9657;45.940;12.840;2023-05-18T11:29:18;5.25;;;1.20;;
19049;SDS011;9657;45.940;12.840;2023-05-18T11:31:49;2.42;;;0.75;;
19049;SDS011;9657;45.940;12.840;2023-05-18T11:34:33;2.03;;;1.02;;
19049;SDS011;9657;45.940;12.840;2023-05-18T11:37:09;5.80;;;1.27;;
19049;SDS011;9657;45.940;12.840;2023-05-18T11:39:36;2.58;;;1.23;;
19049;SDS011;9657;45.940;12.840;2023-05-18T11:42:08;1.75;;;1.10;;
19049;SDS011;9657;45.940;12.840;2023-05-18T11:44:38;2.22;;;0.95;;
19049;SDS011;9657;45.940;12.840;2023-05-18T11:47:07;2.13;;;1.40;;
19049;SDS011;9657;45.940;12.840;2023-05-18T11:49:35;2.47;;;1.40;;
19049;SDS011;9657;45.940;12.840;2023-05-18T11:52:08;3.08;;;1.50;;
19049;SDS011;9657;45.940;12.840;2023-05-18T11:54:42;2.45;;;1.17;;
19049;SDS011;9657;45.940;12.840;2023-05-18T11:57:12;1.80;;;1.10;;
19049;SDS011;9657;45.940;12.840;2023-05-18T11:59:42;2.72;;;1.20;;
19049;SDS011;9657;45.940;12.840;2023-05-18T12:02:11;1.52;;;0.88;;
19049;SDS011;9657;45.940;12.840;2023-05-18T12:04:42;3.58;;;1.35;;
19049;SDS011;9657;45.940;12.840;2023-05-18T12:07:10;2.60;;;1.00;;
19049;SDS011;9657;45.940;12.840;2023-05-18T12:09:41;1.20;;;1.10;;
19049;SDS011;9657;45.940;12.840;2023-05-18T12:12:09;2.83;;;1.15;;
19049;SDS011;9657;45.940;12.840;2023-05-18T12:14:39;4.63;;;1.60;;
19049;SDS011;9657;45.940;12.840;2023-05-18T12:17:07;3.55;;;1.13;;
19049;SDS011;9657;45.940;12.840;2023-05-18T12:19:35;4.80;;;1.20;;
19049;SDS011;9657;45.940;12.840;2023-05-18T12:22:03;3.30;;;1.25;;
19049;SDS011;9657;45.940;12.840;2023-05-18T12:24:31;2.33;;;1.25;;
19049;SDS011;9657;45.940;12.840;2023-05-18T12:26:58;1.50;;;1.40;;
19049;SDS011;9657;45.940;12.840;2023-05-18T12:29:28;1.40;;;1.17;;
19049;SDS011;9657;45.940;12.840;2023-05-18T12:31:57;1.40;;;0.70;;
19049;SDS011;9657;45.940;12.840;2023-05-18T12:34:26;4.13;;;1.00;;
19049;SDS011;9657;45.940;12.840;2023-05-18T12:36:55;2.30;;;0.98;;
19049;SDS011;9657;45.940;12.840;2023-05-18T12:39:23;3.83;;;1.83;;
19049;SDS011;9657;45.940;12.840;2023-05-18T12:41:50;2.95;;;1.20;;
19049;SDS011;9657;45.940;12.840;2023-05-18T12:44:17;1.73;;;0.85;;
19049;SDS011;9657;45.940;12.840;2023-05-18T12:46:44;2.55;;;1.08;;
19049;SDS011;9657;45.940;12.840;2023-05-18T12:49:16;3.40;;;1.20;;
19049;SDS011;9657;45.940;12.840;2023-05-18T12:51:44;1.65;;;1.15;;
19049;SDS011;9657;45.940;12.840;2023-05-18T12:54:11;2.33;;;1.25;;
19049;SDS011;9657;45.940;12.840;2023-05-18T12:56:47;1.38;;;1.15;;
19049;SDS011;9657;45.940;12.840;2023-05-18T12:59:16;5.50;;;1.42;;
19049;SDS011;9657;45.940;12.840;2023-05-18T13:01:45;2.75;;;0.95;;
19049;SDS011;9657;45.940;12.840;2023-05-18T13:04:12;2.17;;;0.95;;
19049;SDS011;9657;45.940;12.840;2023-05-18T13:06:40;1.25;;;0.90;;
19049;SDS011;9657;45.940;12.840;2023-05-18T13:09:10;1.40;;;0.90;;
19049;SDS011;9657;45.940;12.840;2023-05-18T13:11:38;3.03;;;1.27;;
19049;SDS011;9657;45.940;12.840;2023-05-18T13:14:06;1.92;;;1.10;;
19049;SDS011;9657;45.940;12.840;2023-05-18T13:16:36;1.33;;;1.00;;
19049;SDS011;9657;45.940;12.840;2023-05-18T13:19:04;2.97;;;1.23;;
19049;SDS011;9657;45.940;12.840;2023-05-18T13:21:32;4.05;;;1.40;;
19049;SDS011;9657;45.940;12.840;2023-05-18T13:24:02;2.00;;;1.02;;
19049;SDS011;9657;45.940;12.840;2023-05-18T13:26:29;1.33;;;1.10;;
19049;SDS011;9657;45.940;12.840;2023-05-18T13:28:57;1.48;;;0.70;;
19049;SDS011;9657;45.940;12.840;2023-05-18T13:31:24;2.45;;;0.88;;
19049;SDS011;9657;45.940;12.840;2023-05-18T13:33:53;0.90;;;0.80;;
19049;SDS011;9657;45.940;12.840;2023-05-18T13:36:21;1.10;;;1.00;;
19049;SDS011;9657;45.940;12.840;2023-05-18T13:38:48;4.47;;;1.10;;
19049;SDS011;9657;45.940;12.840;2023-05-18T13:41:17;1.40;;;0.80;;
19049;SDS011;9657;45.940;12.840;2023-05-18T13:43:45;1.98;;;1.48;;
19049;SDS011;9657;45.940;12.840;2023-05-18T13:46:12;2.30;;;1.02;;
19049;SDS011;9657;45.940;12.840;2023-05-18T13:48:39;3.28;;;1.00;;
19049;SDS011;9657;45.940;12.840;2023-05-18T13:51:06;1.67;;;1.17;;
19049;SDS011;9657;45.940;12.840;2023-05-18T13:53:33;1.48;;;1.10;;
19049;SDS011;9657;45.940;12.840;2023-05-18T13:56:00;2.13;;;1.02;;
19049;SDS011;9657;45.940;12.840;2023-05-18T13:58:29;2.13;;;1.27;;
19049;SDS011;9657;45.940;12.840;2023-05-18T14:00:56;1.10;;;1.00;;
19049;SDS011;9657;45.940;12.840;2023-05-18T14:03:24;2.10;;;0.95;;
19049;SDS011;9657;45.940;12.840;2023-05-18T14:05:51;1.60;;;1.15;;
19049;SDS011;9657;45.940;12.840;2023-05-18T14:08:18;2.05;;;0.98;;
19049;SDS011;9657;45.940;12.840;2023-05-18T14:10:45;1.27;;;0.85;;
19049;SDS011;9657;45.940;12.840;2023-05-18T14:13:12;1.58;;;0.93;;
19049;SDS011;9657;45.940;12.840;2023-05-18T14:15:42;1.98;;;1.10;;
19049;SDS011;9657;45.940;12.840;2023-05-18T14:18:09;1.30;;;1.10;;
19049;SDS011;9657;45.940;12.840;2023-05-18T14:20:36;2.30;;;1.30;;
19049;SDS011;9657;45.940;12.840;2023-05-18T14:23:03;1.90;;;1.20;;
19049;SDS011;9657;45.940;12.840;2023-05-18T14:25:30;0.70;;;0.70;;
19049;SDS011;9657;45.940;12.840;2023-05-18T14:27:57;2.50;;;0.93;;
19049;SDS011;9657;45.940;12.840;2023-05-18T14:30:24;1.10;;;0.90;;
19049;SDS011;9657;45.940;12.840;2023-05-18T14:32:53;0.90;;;0.87;;
19049;SDS011;9657;45.940;12.840;2023-05-18T14:35:20;1.60;;;1.20;;
19049;SDS011;9657;45.940;12.840;2023-05-18T14:37:47;1.30;;;0.93;;
19049;SDS011;9657;45.940;12.840;2023-05-18T14:40:14;1.10;;;0.93;;
19049;SDS011;9657;45.940;12.840;2023-05-18T14:42:41;1.20;;;1.10;;
19049;SDS011;9657;45.940;12.840;2023-05-18T14:45:08;1.85;;;1.23;;
19049;SDS011;9657;45.940;12.840;2023-05-18T14:47:35;2.88;;;1.00;;
19049;SDS011;9657;45.940;12.840;2023-05-18T14:50:04;1.30;;;0.85;;
19049;SDS011;9657;45.940;12.840;2023-05-18T14:52:32;2.97;;;1.23;;
19049;SDS011;9657;45.940;12.840;2023-05-18T14:54:59;1.23;;;0.93;;
19049;SDS011;9657;45.940;12.840;2023-05-18T14:57:26;1.83;;;1.10;;
19049;SDS011;9657;45.940;12.840;2023-05-18T14:59:53;1.20;;;1.10;;
19049;SDS011;9657;45.940;12.840;2023-05-18T15:02:20;1.45;;;1.20;;